createdAt,value
2023-01-10T00:00:55.725Z,45.60
2023-01-10T00:03:22.734Z,46.83
2023-01-10T00:05:49.812Z,46.20
2023-01-10T00:08:17.539Z,45.03
2023-01-10T00:10:44.644Z,50.23
2023-01-10T00:13:25.359Z,43.53
2023-01-10T00:15:55.451Z,45.40
2023-01-10T00:18:23.223Z,47.43
2023-01-10T00:20:50.616Z,47.80
2023-01-10T00:23:18.548Z,50.13
2023-01-10T00:25:46.127Z,44.50
2023-01-10T00:28:20.264Z,48.93
2023-01-10T00:31:00.088Z,43.90
2023-01-10T00:33:30.090Z,45.13
2023-01-10T00:35:57.324Z,46.17
2023-01-10T00:38:24.451Z,46.57
2023-01-10T00:40:51.534Z,47.17
2023-01-10T00:43:37.318Z,52.17
2023-01-10T00:46:04.481Z,49.70
2023-01-10T00:48:31.499Z,46.30
2023-01-10T00:50:58.523Z,54.17
2023-01-10T00:53:25.661Z,54.20
2023-01-10T00:55:55.113Z,47.57
2023-01-10T00:58:22.445Z,48.00
2023-01-10T01:00:50.346Z,48.53
2023-01-10T01:03:20.166Z,48.10
2023-01-10T01:05:49.028Z,48.90
2023-01-10T01:08:18.281Z,49.73
2023-01-10T01:10:46.091Z,45.27
2023-01-10T01:13:20.077Z,49.47
2023-01-10T01:15:48.477Z,51.10
2023-01-10T01:18:21.842Z,48.27
2023-01-10T01:20:53.526Z,52.23
2023-01-10T01:23:20.805Z,56.13
2023-01-10T01:25:52.009Z,53.37
2023-01-10T01:28:19.192Z,59.20
2023-01-10T01:30:46.724Z,55.60
2023-01-10T01:33:14.167Z,55.77
2023-01-10T01:35:45.967Z,51.60
2023-01-10T01:38:14.134Z,55.50
2023-01-10T01:40:41.818Z,57.47
2023-01-10T01:43:34.423Z,53.13
2023-01-10T01:46:04.370Z,55.27
2023-01-10T01:48:42.876Z,58.50
2023-01-10T01:51:28.615Z,56.53
2023-01-10T01:54:12.053Z,59.90
2023-01-10T01:56:51.990Z,53.47
2023-01-10T01:59:28.721Z,57.73
2023-01-10T02:02:11.675Z,58.30
2023-01-10T02:04:48.975Z,57.00
2023-01-10T02:07:16.273Z,55.37
2023-01-10T02:09:54.115Z,55.97
2023-01-10T02:12:21.255Z,59.27
2023-01-10T02:14:51.257Z,58.53
2023-01-10T02:17:18.262Z,66.00
2023-01-10T02:20:03.268Z,60.63
2023-01-10T02:23:10.905Z,61.50
2023-01-10T02:26:17.960Z,59.37
2023-01-10T02:29:03.214Z,62.97
2023-01-10T02:32:04.032Z,59.47
2023-01-10T02:34:50.940Z,57.37
2023-01-10T02:37:36.954Z,57.40
2023-01-10T02:40:21.167Z,59.70
2023-01-10T02:43:18.655Z,57.57
2023-01-10T02:46:05.887Z,60.67
2023-01-10T02:48:32.929Z,53.37
2023-01-10T02:51:11.494Z,57.97
2023-01-10T02:53:45.263Z,59.30
2023-01-10T02:56:34.298Z,62.80
2023-01-10T02:59:30.061Z,62.80
2023-01-10T03:02:01.154Z,60.97
2023-01-10T03:05:11.189Z,63.07
2023-01-10T03:08:02.247Z,55.53
2023-01-10T03:11:10.036Z,58.43
2023-01-10T03:13:58.247Z,51.47
2023-01-10T03:16:29.399Z,55.87
2023-01-10T03:19:08.615Z,58.73
2023-01-10T03:21:37.994Z,59.53
2023-01-10T03:24:18.699Z,58.13
2023-01-10T03:27:06.285Z,58.00
2023-01-10T03:30:13.539Z,57.43
2023-01-10T03:32:41.663Z,56.93
2023-01-10T03:35:11.107Z,54.60
2023-01-10T03:38:05.521Z,50.00
2023-01-10T03:40:53.489Z,54.27
2023-01-10T03:43:58.915Z,61.50
2023-01-10T03:46:56.944Z,50.77
2023-01-10T03:49:27.547Z,52.27
2023-01-10T03:51:56.899Z,53.17
2023-01-10T03:54:23.976Z,60.20
2023-01-10T03:56:52.173Z,53.37
2023-01-10T03:59:26.061Z,57.93
2023-01-10T04:01:54.161Z,60.70
2023-01-10T04:04:22.181Z,58.83
2023-01-10T04:06:49.255Z,60.83
2023-01-10T04:09:16.241Z,60.10
2023-01-10T04:11:43.274Z,53.77
2023-01-10T04:14:10.367Z,59.83
2023-01-10T04:16:37.400Z,64.70
2023-01-10T04:19:04.508Z,62.47
2023-01-10T04:21:31.499Z,56.47
2023-01-10T04:23:58.516Z,65.27
2023-01-10T04:26:25.671Z,63.23
2023-01-10T04:28:52.696Z,63.10
2023-01-10T04:31:20.199Z,61.67
2023-01-10T04:33:47.265Z,60.70
2023-01-10T04:36:14.535Z,67.80
2023-01-10T04:38:41.544Z,60.60
2023-01-10T04:41:09.805Z,64.57
2023-01-10T04:43:36.824Z,66.80
2023-01-10T04:46:04.203Z,62.40
2023-01-10T04:48:31.405Z,64.77
2023-01-10T04:50:58.433Z,61.27
2023-01-10T04:53:26.706Z,61.37
2023-01-10T04:55:53.716Z,58.47
2023-01-10T04:58:20.803Z,60.37
2023-01-10T05:00:47.858Z,57.47
2023-01-10T05:03:17.895Z,60.40
2023-01-10T05:05:44.900Z,55.67
2023-01-10T05:08:11.973Z,57.90
2023-01-10T05:10:38.981Z,59.73
2023-01-10T05:13:05.982Z,56.53
2023-01-10T05:15:33.012Z,54.50
2023-01-10T05:18:01.233Z,59.63
2023-01-10T05:20:28.226Z,55.90
2023-01-10T05:22:55.237Z,56.33
2023-01-10T05:25:23.327Z,61.37
2023-01-10T05:27:50.449Z,55.07
2023-01-10T05:30:17.873Z,55.27
2023-01-10T05:32:45.048Z,56.37
2023-01-10T05:35:12.164Z,56.30
2023-01-10T05:37:39.819Z,56.37
2023-01-10T05:40:07.859Z,57.07
2023-01-10T05:42:34.911Z,57.90
2023-01-10T05:45:01.939Z,51.13
2023-01-10T05:47:29.564Z,58.93
2023-01-10T05:49:56.594Z,56.13
2023-01-10T05:52:23.652Z,54.33
2023-01-10T05:54:50.755Z,59.33
2023-01-10T05:57:19.236Z,59.03
2023-01-10T05:59:46.279Z,52.73
2023-01-10T06:02:13.506Z,54.60
2023-01-10T06:04:40.655Z,52.17
2023-01-10T06:07:07.656Z,53.13
2023-01-10T06:09:34.653Z,58.87
2023-01-10T06:12:01.871Z,57.87
2023-01-10T06:14:28.975Z,56.47
2023-01-10T06:16:56.042Z,54.80
2023-01-10T06:19:23.033Z,54.63
2023-01-10T06:21:50.092Z,53.80
2023-01-10T06:24:17.247Z,56.97
2023-01-10T06:26:44.233Z,53.37
2023-01-10T06:29:11.412Z,60.50
2023-01-10T06:31:38.493Z,57.87
2023-01-10T06:34:05.525Z,55.67
2023-01-10T06:36:32.589Z,55.00
2023-01-10T06:38:59.634Z,56.50
2023-01-10T06:41:26.715Z,56.07
2023-01-10T06:43:53.801Z,59.83
2023-01-10T06:46:21.146Z,56.80
2023-01-10T06:48:48.395Z,51.93
2023-01-10T06:51:19.144Z,59.83
2023-01-10T06:53:47.150Z,57.57
2023-01-10T06:56:14.147Z,53.70
2023-01-10T06:58:41.217Z,48.60
2023-01-10T07:01:15.488Z,51.43
2023-01-10T07:03:42.762Z,50.90
2023-01-10T07:06:10.347Z,54.23
2023-01-10T07:08:43.860Z,56.20
2023-01-10T07:11:11.800Z,49.37
2023-01-10T07:13:39.665Z,50.30
2023-01-10T07:16:13.047Z,56.43
2023-01-10T07:18:42.939Z,55.53
2023-01-10T07:21:11.295Z,48.43
2023-01-10T07:23:39.278Z,49.90
2023-01-10T07:26:09.973Z,52.60
2023-01-10T07:28:37.382Z,51.53
2023-01-10T07:31:06.280Z,54.20
2023-01-10T07:33:33.576Z,50.50
2023-01-10T07:36:02.032Z,52.00
2023-01-10T07:38:29.931Z,50.50
2023-01-10T07:40:57.231Z,48.40
2023-01-10T07:43:24.213Z,52.03
2023-01-10T07:45:51.675Z,43.73
2023-01-10T07:48:18.704Z,53.10
2023-01-10T07:50:46.471Z,46.30
2023-01-10T07:53:13.774Z,50.07
2023-01-10T07:55:41.230Z,45.20
2023-01-10T07:58:08.507Z,41.90
2023-01-10T08:00:35.946Z,45.90
2023-01-10T08:03:03.142Z,42.37
2023-01-10T16:58:59.586Z,41.47
2023-01-10T17:01:41.974Z,39.30
2023-01-10T17:04:12.486Z,38.53
2023-01-10T17:06:41.338Z,38.83
2023-01-10T17:09:21.688Z,39.37
2023-01-10T17:11:54.492Z,39.90
2023-01-10T17:14:21.509Z,37.00
2023-01-10T17:16:48.781Z,44.37
2023-01-10T17:19:15.878Z,39.97
2023-01-10T17:21:42.941Z,38.87
2023-01-10T17:24:11.327Z,39.50
2023-01-10T17:26:38.372Z,44.53
2023-01-10T17:29:05.423Z,39.50
2023-01-10T17:31:32.472Z,41.43
2023-01-10T17:33:59.586Z,42.73
2023-01-10T17:36:32.451Z,40.90
2023-01-10T17:38:59.895Z,40.80
2023-01-10T17:41:26.906Z,38.70
2023-01-10T17:43:53.886Z,42.40
2023-01-10T17:46:22.292Z,43.23
2023-01-10T17:48:49.306Z,43.07
2023-01-10T17:51:17.491Z,42.00
2023-01-10T17:53:44.666Z,39.50
2023-01-10T17:56:12.008Z,40.70
2023-01-10T17:58:39.055Z,40.43
2023-01-10T18:01:06.393Z,42.67
2023-01-10T18:03:34.037Z,37.50
2023-01-10T18:06:01.397Z,42.97
2023-01-10T18:08:28.573Z,41.23
2023-01-10T18:11:02.401Z,39.37
2023-01-10T18:13:31.170Z,42.13
2023-01-10T18:15:59.465Z,46.27
2023-01-10T18:18:27.954Z,37.50
2023-01-10T18:20:58.162Z,40.77
2023-01-10T18:23:26.811Z,40.40
2023-01-10T18:26:05.986Z,42.10
2023-01-10T18:28:44.465Z,42.57
2023-01-10T18:31:17.941Z,42.13
2023-01-10T18:33:47.065Z,42.63
2023-01-10T18:36:23.235Z,40.70
2023-01-10T18:38:51.792Z,47.67
2023-01-10T18:41:20.155Z,45.47
2023-01-10T18:43:48.217Z,41.20
2023-01-10T18:46:20.466Z,46.03
2023-01-10T18:48:50.207Z,45.97
2023-01-10T18:51:19.094Z,42.47
2023-01-10T18:53:47.637Z,42.27
2023-01-10T18:56:14.908Z,40.67
2023-01-10T18:58:43.064Z,45.90
2023-01-10T19:01:19.177Z,46.50
2023-01-10T19:03:46.966Z,44.60
2023-01-10T19:06:16.729Z,42.27
2023-01-10T19:08:45.845Z,45.90
2023-01-10T19:11:16.115Z,46.33
2023-01-10T19:13:48.053Z,44.43
2023-01-10T19:16:19.819Z,44.47
2023-01-10T19:18:57.007Z,47.67
2023-01-10T19:21:26.348Z,44.00
2023-01-10T19:23:55.860Z,45.13
2023-01-10T19:26:24.520Z,43.33
2023-01-10T19:28:51.760Z,40.13
2023-01-10T19:31:27.985Z,42.63
2023-01-10T19:33:58.813Z,46.40
2023-01-10T19:36:26.450Z,43.97
2023-01-10T19:38:58.661Z,46.00
2023-01-10T19:41:28.212Z,40.33
2023-01-10T19:44:12.642Z,41.07
2023-01-10T19:46:40.743Z,48.80
2023-01-10T19:49:08.833Z,46.07
2023-01-10T19:51:40.653Z,44.40
2023-01-10T19:54:09.189Z,53.23
2023-01-10T19:56:36.724Z,45.20
2023-01-10T19:59:03.789Z,44.93
2023-01-10T20:01:32.187Z,47.40
2023-01-10T20:04:02.174Z,49.27
2023-01-10T20:06:32.394Z,49.30
2023-01-10T20:08:59.445Z,51.10
2023-01-10T20:11:37.279Z,45.37
2023-01-10T20:14:17.664Z,55.03
2023-01-10T20:16:45.729Z,53.43
2023-01-10T20:19:13.469Z,54.43
2023-01-10T20:21:42.255Z,51.00
2023-01-10T20:24:16.824Z,45.70
2023-01-10T20:26:45.819Z,43.27
2023-01-10T20:29:13.876Z,47.57
2023-01-10T20:31:43.155Z,48.53
2023-01-10T20:34:10.179Z,49.03
2023-01-10T20:36:37.372Z,46.70
2023-01-10T20:39:04.530Z,54.33
2023-01-10T20:41:31.862Z,53.17
2023-01-10T20:43:58.993Z,55.87
2023-01-10T20:46:30.760Z,57.17
2023-01-10T20:49:01.395Z,56.93
2023-01-10T20:51:33.183Z,63.23
2023-01-10T20:54:00.593Z,60.20
2023-01-10T20:56:30.924Z,60.53
2023-01-10T20:58:58.740Z,63.03
2023-01-10T21:01:35.809Z,63.17
2023-01-10T21:04:07.071Z,60.63
2023-01-10T21:06:35.910Z,59.50
2023-01-10T21:09:04.958Z,57.13
2023-01-10T21:11:36.706Z,54.20
2023-01-10T21:14:13.124Z,56.07
2023-01-10T21:16:40.106Z,56.80
2023-01-10T21:19:07.166Z,49.83
2023-01-10T21:21:34.281Z,55.20
2023-01-10T21:24:01.312Z,54.87
2023-01-10T21:26:28.344Z,52.10
2023-01-10T21:28:55.395Z,54.97
2023-01-10T21:31:22.606Z,48.73
2023-01-10T21:33:50.201Z,47.63
2023-01-10T21:36:17.926Z,46.73
2023-01-10T21:38:45.186Z,48.17
2023-01-10T21:41:35.647Z,45.10
2023-01-10T21:44:04.744Z,50.60
2023-01-10T21:46:32.196Z,47.43
2023-01-10T21:49:00.464Z,48.10
2023-01-10T21:51:27.581Z,44.80
2023-01-10T21:53:54.799Z,48.27
2023-01-10T21:56:21.926Z,47.70
2023-01-10T21:58:49.006Z,48.60
2023-01-10T22:01:16.268Z,46.67
2023-01-10T22:03:46.013Z,46.30
2023-01-10T22:06:13.534Z,43.90
2023-01-10T22:08:40.595Z,42.87
2023-01-10T22:11:10.551Z,44.30
2023-01-10T22:13:38.709Z,45.17
2023-01-10T22:16:06.963Z,45.50
2023-01-10T22:18:34.231Z,42.10
2023-01-10T22:21:01.357Z,46.77
2023-01-10T22:23:30.358Z,43.67
2023-01-10T22:26:15.050Z,49.57
2023-01-10T22:28:42.329Z,47.63
2023-01-10T22:31:09.759Z,50.60
2023-01-10T22:33:38.220Z,45.33
2023-01-10T22:36:18.124Z,45.87
2023-01-10T22:38:48.919Z,44.83
2023-01-10T22:41:27.452Z,46.73
2023-01-10T22:43:55.278Z,49.77
2023-01-10T22:46:23.357Z,45.27
2023-01-10T22:48:50.596Z,49.57
2023-01-10T22:51:19.830Z,50.33
2023-01-10T22:53:56.132Z,45.50
2023-01-10T22:56:24.555Z,44.73
2023-01-10T22:58:52.525Z,47.00
2023-01-10T23:01:22.480Z,48.07
2023-01-10T23:03:49.843Z,49.17
2023-01-10T23:06:17.954Z,49.27
2023-01-10T23:08:46.043Z,48.03
2023-01-10T23:11:17.215Z,49.00
2023-01-10T23:13:45.652Z,49.53
2023-01-10T23:16:28.501Z,48.73
2023-01-10T23:19:00.325Z,49.27
2023-01-10T23:21:30.958Z,50.07
2023-01-10T23:23:58.045Z,48.00
2023-01-10T23:26:25.379Z,45.03
2023-01-10T23:28:52.782Z,45.20
2023-01-10T23:31:23.060Z,49.93
2023-01-10T23:33:51.298Z,45.87
2023-01-10T23:36:19.358Z,43.80
2023-01-10T23:38:47.189Z,49.00
2023-01-10T23:41:14.269Z,44.73
2023-01-10T23:43:42.527Z,47.97
2023-01-10T23:46:09.839Z,46.93
2023-01-10T23:48:37.121Z,46.97
2023-01-10T23:51:07.623Z,45.43
2023-01-10T23:53:34.668Z,44.60
2023-01-10T23:56:07.814Z,45.40
2023-01-10T23:58:34.905Z,44.53
